FMMI

Ivato Airport

Antananarivo, Madagascar
FMMI 221100Z 2212/2318 36010KT 9999 SCT010 BKN017 PROB40 TEMPO 2212/2306 4000 DZRA BECMG 2308/2310 SCT017CB BKN020 PROB40 TEMPO 2311/2318 4000 TSRA
Issued Valid From Valid To
Jan-22 @ 11:00 UTC
(6 hours ago)
Jan-22 @ 12:00 UTC
(5 hours ago)
Jan-23 @ 18:00 UTC
(-1 days ago)
Jan-22 @ 12:00 to Jan-23 @ 08:00
FMMI 221100Z 2212/2318 36010KT 9999 SCT010 BKN017
Wind Visibility Clouds
360° at 10 knots 10,000+ meters
  • Scattered at 1,000' AGL
  • Broken at 1,700' AGL
Temporary  (Probability 40%) Jan-22 @ 12:00 to Jan-23 @ 06:00
PROB40 TEMPO 2212/2306 4000 DZRA
Visibility Conditions
4,007 meters
  • Drizzle
  • Rain
Becoming Jan-23 @ 08:00 to Jan-23 @ 18:00
BECMG 2308/2310 SCT017CB BKN020
Wind Visibility Clouds
360° at 10 knots 10,000+ meters
  • Scattered at 1,700' AGL
  • Broken at 2,000' AGL
Temporary  (Probability 40%) Jan-23 @ 11:00 to Jan-23 @ 18:00
PROB40 TEMPO 2311/2318 4000 TSRA
Visibility Conditions
4,007 meters
  • Thunderstorm
  • Rain
FMMI 221100Z 2212/2318 36010KT 9999 SCT010 BKN017 PROB40 TEMPO 2212/2306 4000 DZRA BECMG 2308/2310 SCT017CB BKN020 PROB40 TEMPO 2311/2318 4000 TSRA
Issued Jan-22 @ 11:00 UTC
(6 hours ago)
Valid From Jan-22 @ 12:00 UTC
(5 hours ago)
Valid To Jan-23 @ 18:00 UTC
(-1 days ago)
Jan-22 @ 12:00 - Jan-23 @ 08:00
Wind Visibility
360° at 10 knots 10,000+ meters
Clouds
  • Scattered at 1,000' AGL
  • Broken at 1,700' AGL
Probability 40% Temporary Jan-22 @ 12:00 - Jan-23 @ 06:00
Conditions
  • Drizzle
  • Rain
Becoming Jan-23 @ 08:00 - Jan-23 @ 18:00
Wind Visibility
360° at 10 knots 10,000+ meters
Clouds
  • Scattered at 1,700' AGL
  • Broken at 2,000' AGL
Probability 40% Temporary Jan-23 @ 11:00 - Jan-23 @ 18:00
Conditions
  • Thunderstorm
  • Rain